createdAt,value
2018-02-04T12:54:34.583Z,4.50
2018-02-04T12:55:41.680Z,5.20
2018-02-04T12:56:48.519Z,4.30
2018-02-04T12:57:55.278Z,5.00
2018-02-04T12:59:02.015Z,4.60
2018-02-04T13:00:08.953Z,4.20
2018-02-04T13:01:15.695Z,4.90
2018-02-04T13:02:22.460Z,4.90
2018-02-04T13:03:29.227Z,4.40
2018-02-04T13:04:35.902Z,4.40
2018-02-04T13:05:42.738Z,4.10
2018-02-04T13:06:49.592Z,4.50
2018-02-04T13:07:56.306Z,5.10
2018-02-04T13:09:03.175Z,7.40
2018-02-04T13:10:09.875Z,4.70
2018-02-04T13:11:16.580Z,4.50
2018-02-04T13:12:23.280Z,4.00
2018-02-04T13:13:30.004Z,4.70
2018-02-04T13:14:36.715Z,4.50
2018-02-04T13:15:43.379Z,4.70
2018-02-04T13:16:50.076Z,5.10
2018-02-04T13:17:56.763Z,4.30
2018-02-04T13:19:03.514Z,5.40
2018-02-04T13:20:10.175Z,6.30
2018-02-04T13:21:17.343Z,6.20
2018-02-04T13:22:24.072Z,6.00
2018-02-04T13:23:30.840Z,4.70
2018-02-04T13:24:37.631Z,5.30
2018-02-04T13:25:44.435Z,4.70
2018-02-04T13:26:51.115Z,5.90
2018-02-04T13:27:57.767Z,5.20
2018-02-04T13:29:04.513Z,4.70
2018-02-04T13:30:11.219Z,4.60
2018-02-04T13:31:18.203Z,5.10
2018-02-04T13:32:24.955Z,4.50
2018-02-04T13:33:31.670Z,4.30
2018-02-04T13:34:38.371Z,3.80
2018-02-04T13:35:45.075Z,3.90
2018-02-04T13:36:51.756Z,4.70
2018-02-04T13:37:58.923Z,4.70
2018-02-04T13:39:06.095Z,4.20
2018-02-04T13:40:12.949Z,4.30
2018-02-04T13:41:19.635Z,4.10
2018-02-04T13:42:26.449Z,4.80
2018-02-04T13:43:33.190Z,4.40
2018-02-04T13:44:39.995Z,4.80
2018-02-04T13:45:46.667Z,4.50
2018-02-04T13:46:53.574Z,6.90
2018-02-04T13:48:00.255Z,4.80
2018-02-04T13:49:06.919Z,5.30
2018-02-04T13:50:13.624Z,5.20
2018-02-04T13:51:21.279Z,4.80
2018-02-04T13:52:27.577Z,4.80
2018-02-04T13:53:34.240Z,5.50
2018-02-04T13:54:40.976Z,5.10
2018-02-04T13:55:47.759Z,5.10
2018-02-04T13:56:54.447Z,5.90
2018-02-04T13:58:01.115Z,4.80
2018-02-04T13:59:08.279Z,6.00
2018-02-04T14:00:15.006Z,6.00
2018-02-04T14:01:21.771Z,5.80
2018-02-04T14:02:28.475Z,5.10
2018-02-04T14:03:35.159Z,5.50
2018-02-04T14:04:41.862Z,4.60
2018-02-04T14:05:48.877Z,5.10
2018-02-04T14:06:55.733Z,5.30
2018-02-04T14:08:02.447Z,4.80
2018-02-04T14:09:09.170Z,5.20
2018-02-04T14:10:15.875Z,5.50
2018-02-04T14:11:22.671Z,5.60
2018-02-04T14:12:29.367Z,4.60
2018-02-04T14:13:36.156Z,5.90
2018-02-04T14:14:42.895Z,5.70
2018-02-04T14:15:49.611Z,5.40
2018-02-04T14:16:56.284Z,5.10
2018-02-04T14:18:03.088Z,5.60
2018-02-04T14:19:09.763Z,6.00
2018-02-04T14:20:16.923Z,6.20
2018-02-04T14:21:23.688Z,5.70
2018-02-04T14:22:30.359Z,5.30
2018-02-04T14:23:37.052Z,5.50
2018-02-04T14:24:43.758Z,6.00
2018-02-04T14:25:50.451Z,5.30
2018-02-04T14:26:57.150Z,6.30
2018-02-04T14:28:03.928Z,6.10
2018-02-04T14:29:10.634Z,6.50
2018-02-04T14:30:17.307Z,5.40
2018-02-04T14:31:24.044Z,4.80
2018-02-04T14:32:30.995Z,5.50
2018-02-04T14:33:37.694Z,4.80
2018-02-04T14:34:44.614Z,6.10
2018-02-04T14:35:51.274Z,6.30
2018-02-04T14:36:57.987Z,5.50
2018-02-04T14:38:04.767Z,5.60
2018-02-04T14:39:11.923Z,6.30
2018-02-04T14:40:18.586Z,6.10
2018-02-04T14:41:25.754Z,5.50
2018-02-04T14:42:32.479Z,5.00
2018-02-04T14:43:39.235Z,6.50
2018-02-04T14:44:45.944Z,5.10
2018-02-04T14:45:52.620Z,5.40
2018-02-04T14:46:59.297Z,7.10
2018-02-04T14:48:06.090Z,5.60
2018-02-04T14:49:12.811Z,5.50
2018-02-04T14:50:19.533Z,5.70
2018-02-04T14:51:26.246Z,5.20
2018-02-04T14:52:32.971Z,5.40
2018-02-04T14:53:39.808Z,6.20
2018-02-04T14:54:46.502Z,5.80
2018-02-04T14:55:53.196Z,5.20
2018-02-04T14:56:59.907Z,5.40
2018-02-04T14:58:06.644Z,5.80
2018-02-04T14:59:13.315Z,6.90
2018-02-04T15:00:20.104Z,5.50
2018-02-04T15:01:26.892Z,5.60
2018-02-04T15:02:33.643Z,6.00
2018-02-04T15:03:40.474Z,6.20
2018-02-04T15:04:47.315Z,4.80
2018-02-04T15:05:54.116Z,5.60
2018-02-04T15:07:01.152Z,5.50
2018-02-04T15:08:08.138Z,5.40
2018-02-04T15:09:15.076Z,5.80
2018-02-04T15:10:22.012Z,5.70
2018-02-04T15:11:28.795Z,7.10
2018-02-04T15:12:35.763Z,5.20
2018-02-04T15:13:42.852Z,6.80
2018-02-04T15:14:49.771Z,5.70
2018-02-04T15:15:56.828Z,5.90
2018-02-04T15:17:03.783Z,5.20
2018-02-04T15:18:10.743Z,5.90
2018-02-04T15:19:17.527Z,6.10
2018-02-04T15:20:24.263Z,5.60
2018-02-04T15:21:31.112Z,5.90
2018-02-04T15:22:37.889Z,5.80
2018-02-04T15:23:44.652Z,5.70
2018-02-04T15:24:51.417Z,5.90
2018-02-04T15:25:58.208Z,6.00
2018-02-04T15:27:05.227Z,5.80
2018-02-04T15:28:12.144Z,7.80
2018-02-04T15:29:18.931Z,6.40
2018-02-04T15:30:25.679Z,6.90
2018-02-04T15:31:32.443Z,6.50
2018-02-04T15:32:39.187Z,6.70
2018-02-04T15:33:45.867Z,6.80
2018-02-04T15:34:52.631Z,7.00
2018-02-04T15:35:59.333Z,7.40
2018-02-04T15:37:06.167Z,7.20
2018-02-04T15:38:12.902Z,6.90
2018-02-04T15:39:19.623Z,6.60
2018-02-04T15:40:26.378Z,6.80
2018-02-04T15:41:33.106Z,6.70
2018-02-04T15:42:40.007Z,6.10
2018-02-04T15:43:46.756Z,6.80
2018-02-04T15:44:53.515Z,7.30
2018-02-04T15:46:00.384Z,6.60
2018-02-04T15:47:07.191Z,6.90
2018-02-04T15:48:13.910Z,6.70
2018-02-04T15:49:20.671Z,6.30
2018-02-04T15:50:27.495Z,8.60
2018-02-04T15:51:34.208Z,6.30
2018-02-04T15:52:40.951Z,6.10
2018-02-04T15:53:47.712Z,6.10
2018-02-04T15:54:54.467Z,8.40
2018-02-04T15:56:01.278Z,5.80
2018-02-04T15:57:08.043Z,6.40
2018-02-04T15:58:14.793Z,6.50
2018-02-04T15:59:21.507Z,6.90
2018-02-04T16:00:28.355Z,7.10
2018-02-04T16:01:35.079Z,6.70
2018-02-04T16:02:41.793Z,7.10
2018-02-04T16:03:48.475Z,8.20
2018-02-04T16:04:55.175Z,7.40
2018-02-04T16:06:01.946Z,7.20
2018-02-04T16:07:08.635Z,6.90
2018-02-04T16:08:15.531Z,7.60
2018-02-04T16:09:22.250Z,7.20
2018-02-04T16:10:28.975Z,7.30
2018-02-04T16:11:35.680Z,7.70
2018-02-04T16:12:42.910Z,8.30
2018-02-04T16:13:49.755Z,7.90
2018-02-04T16:14:56.415Z,8.90
2018-02-04T16:16:03.281Z,9.60
2018-02-04T16:17:09.984Z,7.70
2018-02-04T16:18:16.728Z,9.40
2018-02-04T16:19:23.523Z,8.10
2018-02-04T16:20:30.699Z,6.90
2018-02-04T16:21:37.386Z,7.90
2018-02-04T16:22:44.124Z,8.10
2018-02-04T16:23:50.967Z,7.50
2018-02-04T16:24:57.642Z,7.60
2018-02-04T16:26:04.830Z,8.80
2018-02-04T16:27:11.631Z,8.10
2018-02-04T16:28:18.336Z,8.40
2018-02-04T16:29:25.065Z,8.20
2018-02-04T16:30:31.907Z,7.10
2018-02-04T16:31:38.600Z,8.20
2018-02-04T16:32:45.399Z,7.90
2018-02-04T16:33:52.178Z,7.20
2018-02-04T16:34:58.872Z,7.50
2018-02-04T16:36:05.563Z,6.70
2018-02-04T16:37:12.303Z,7.50
2018-02-04T16:38:18.990Z,7.10
2018-02-04T16:39:25.767Z,7.60
2018-02-04T16:40:32.663Z,6.60
2018-02-04T16:41:39.387Z,6.50
2018-02-04T16:42:46.056Z,7.20
2018-02-04T16:43:52.821Z,6.50
2018-02-04T16:44:59.531Z,6.30
2018-02-04T16:46:06.219Z,7.20
2018-02-04T16:47:13.092Z,6.50
2018-02-04T16:48:19.810Z,6.10
2018-02-04T16:49:26.983Z,6.10
2018-02-04T16:50:33.779Z,6.50
2018-02-04T16:51:40.467Z,5.80
2018-02-04T16:52:47.173Z,6.00
2018-02-04T16:53:53.958Z,6.00
2018-02-04T16:55:00.704Z,6.50
2018-02-04T16:56:08.079Z,6.00
2018-02-04T16:57:14.756Z,6.30
2018-02-04T16:58:21.475Z,6.70
2018-02-04T16:59:28.203Z,6.80
2018-02-04T17:00:34.887Z,7.40
2018-02-04T17:01:41.951Z,6.00
2018-02-04T17:02:48.727Z,6.30
2018-02-04T17:03:55.675Z,6.20
2018-02-04T17:05:02.401Z,6.00
2018-02-04T17:06:09.172Z,6.40
2018-02-04T17:07:16.038Z,6.20
2018-02-04T17:08:22.831Z,6.00
2018-02-04T17:09:29.563Z,6.80
2018-02-04T17:10:36.299Z,6.00
2018-02-04T17:11:43.126Z,6.20
2018-02-04T17:12:49.833Z,6.10
2018-02-04T17:13:56.575Z,6.10
2018-02-04T17:15:03.318Z,6.10
2018-02-04T17:16:10.062Z,8.40
2018-02-04T17:17:17.215Z,6.30
2018-02-04T17:18:24.107Z,7.00
2018-02-04T17:19:30.826Z,5.60
2018-02-04T17:20:37.542Z,8.20
2018-02-04T17:21:44.305Z,7.10
2018-02-04T17:22:51.207Z,8.70
2018-02-04T17:23:58.199Z,8.50
2018-02-04T17:25:05.011Z,9.30
2018-02-04T17:26:11.780Z,9.70
2018-02-04T17:27:18.522Z,7.00
2018-02-04T17:28:25.294Z,6.50
2018-02-04T17:29:32.092Z,5.80
2018-02-04T17:30:38.883Z,7.30
2018-02-04T17:31:45.690Z,6.60
2018-02-04T17:32:52.539Z,6.70
2018-02-04T17:33:59.247Z,6.70
2018-02-04T17:35:06.011Z,6.50
2018-02-04T17:36:12.743Z,6.20
2018-02-04T17:37:19.499Z,6.90
2018-02-04T17:38:26.312Z,5.70
2018-02-04T17:39:33.071Z,6.60
2018-02-04T17:40:39.870Z,6.20
2018-02-04T17:41:46.739Z,6.70
2018-02-04T17:42:53.523Z,8.50
2018-02-04T17:44:00.259Z,6.30
2018-02-04T17:45:07.210Z,7.20
2018-02-04T17:46:13.987Z,6.40
2018-02-04T17:47:20.811Z,6.20
2018-02-04T17:48:27.670Z,7.20
2018-02-04T17:49:34.400Z,7.30
2018-02-04T17:50:41.224Z,6.50
2018-02-04T17:51:48.136Z,6.20
2018-02-04T17:52:54.940Z,6.70
2018-02-04T17:54:01.824Z,8.80
2018-02-04T17:55:08.631Z,6.40
2018-02-04T17:56:15.375Z,8.60
2018-02-04T17:57:22.263Z,7.10
2018-02-04T17:58:29.195Z,8.20
2018-02-04T17:59:36.061Z,7.60
2018-02-04T18:00:42.954Z,8.10
2018-02-04T18:01:49.811Z,6.20
2018-02-04T18:02:56.535Z,6.70
2018-02-04T18:04:03.347Z,7.00
2018-02-04T18:05:10.059Z,7.80
2018-02-04T18:06:16.863Z,7.30
2018-02-04T18:07:23.615Z,6.70
2018-02-04T18:08:30.460Z,8.40
2018-02-04T18:09:37.195Z,8.00
2018-02-04T18:10:44.111Z,10.30
2018-02-04T18:11:50.895Z,6.50
2018-02-04T18:12:57.644Z,6.90
2018-02-04T18:14:04.388Z,8.10
2018-02-04T18:15:11.117Z,9.90
2018-02-04T18:16:17.951Z,10.40
2018-02-04T18:17:24.742Z,12.30
2018-02-04T18:18:31.479Z,11.30
2018-02-04T18:19:38.222Z,8.10
2018-02-04T18:20:44.963Z,7.80
2018-02-04T18:21:52.369Z,7.10
2018-02-04T18:22:59.088Z,6.90
2018-02-04T18:24:05.835Z,7.90
2018-02-04T18:25:12.563Z,7.10
2018-02-04T18:26:19.439Z,9.40
2018-02-04T18:27:26.208Z,8.70
2018-02-04T18:28:32.936Z,7.30
2018-02-04T18:29:39.679Z,8.30
2018-02-04T18:30:46.532Z,8.20
2018-02-04T18:31:53.267Z,10.20
2018-02-04T18:33:00.389Z,7.80
2018-02-04T18:34:07.119Z,7.50
2018-02-04T18:35:13.842Z,8.60
2018-02-04T18:36:20.599Z,11.10
2018-02-04T18:37:27.488Z,9.50
2018-02-04T18:38:34.227Z,7.50
2018-02-04T18:39:40.994Z,8.90
2018-02-04T18:40:47.715Z,7.70
2018-02-04T18:41:54.455Z,9.50
2018-02-04T18:43:01.212Z,9.20
2018-02-04T18:44:07.951Z,9.20
2018-02-04T18:45:14.743Z,7.80
2018-02-04T18:46:21.471Z,6.70
2018-02-04T18:47:28.315Z,8.40
2018-02-04T18:48:35.070Z,7.50
2018-02-04T18:49:41.795Z,7.10
2018-02-04T18:50:48.583Z,6.90
2018-02-04T18:51:55.322Z,7.30
2018-02-04T18:53:02.103Z,7.40
2018-02-04T18:54:08.849Z,7.00
2018-02-04T18:55:15.562Z,8.50
2018-02-04T18:56:22.307Z,8.10
2018-02-04T18:57:29.039Z,9.30
2018-02-04T18:58:35.839Z,8.10
2018-02-04T18:59:42.566Z,8.80
2018-02-04T19:00:49.307Z,7.90
2018-02-04T19:01:56.096Z,6.50
2018-02-04T19:03:02.951Z,7.60
2018-02-04T19:04:09.679Z,8.00
2018-02-04T19:05:16.431Z,6.80
2018-02-04T19:06:23.221Z,7.10
2018-02-04T19:07:30.175Z,7.70
2018-02-04T19:08:36.924Z,7.30
2018-02-04T19:09:43.640Z,6.50
2018-02-04T19:10:50.511Z,6.60
2018-02-04T19:11:57.303Z,6.60
2018-02-04T19:13:04.351Z,7.80
2018-02-04T19:14:11.131Z,16.60
2018-02-04T19:15:17.856Z,15.00
2018-02-04T19:16:24.556Z,12.90
2018-02-04T19:17:31.280Z,10.20
2018-02-04T19:18:38.112Z,8.80
2018-02-04T19:19:44.831Z,9.30
2018-02-04T19:20:51.578Z,7.10
2018-02-04T19:21:58.290Z,8.40
2018-02-04T19:23:05.051Z,7.90
2018-02-04T19:24:11.871Z,7.60
2018-02-04T19:25:18.569Z,7.90
2018-02-04T19:26:25.306Z,6.70
2018-02-04T19:27:32.045Z,8.10
2018-02-04T19:28:38.808Z,7.90
2018-02-04T19:29:45.496Z,7.60
2018-02-04T19:30:52.301Z,7.00
2018-02-04T19:31:59.002Z,8.20
2018-02-04T19:33:05.748Z,7.50
2018-02-04T19:34:12.487Z,7.60
2018-02-04T19:35:19.195Z,8.40
2018-02-04T19:36:27.208Z,7.80
2018-02-04T19:37:32.932Z,8.10
2018-02-04T19:38:39.663Z,7.40
2018-02-04T19:39:46.396Z,8.40
2018-02-04T19:40:53.279Z,7.70
2018-02-04T19:42:00.021Z,7.50
2018-02-04T19:43:06.792Z,9.00
2018-02-04T19:44:13.511Z,8.20
2018-02-04T19:45:20.439Z,8.10
2018-02-04T19:46:27.203Z,7.30
2018-02-04T19:47:33.920Z,8.40
2018-02-04T19:48:40.671Z,8.80
2018-02-04T19:49:47.499Z,8.40
2018-02-04T19:50:54.256Z,10.10
2018-02-04T19:52:06.060Z,7.50
2018-02-04T19:53:08.104Z,9.80
2018-02-04T19:54:14.839Z,11.40
2018-02-04T19:55:21.553Z,8.60
2018-02-04T19:56:28.411Z,9.60
2018-02-04T19:57:35.111Z,9.70
2018-02-04T19:58:41.859Z,10.90
2018-02-04T19:59:48.602Z,7.60
2018-02-04T20:00:55.311Z,7.00
2018-02-04T20:02:02.159Z,10.60
2018-02-04T20:03:08.975Z,10.30
2018-02-04T20:04:15.791Z,9.00
2018-02-04T20:05:22.487Z,11.30
2018-02-04T20:06:29.252Z,9.20
2018-02-04T20:07:36.191Z,9.00
2018-02-04T20:08:42.880Z,9.50
2018-02-04T20:09:50.059Z,9.80
2018-02-04T20:10:56.899Z,8.40
2018-02-04T20:12:03.743Z,10.60
2018-02-04T20:13:10.459Z,10.40
2018-02-04T20:14:17.250Z,10.50
2018-02-04T20:15:24.444Z,8.90
2018-02-04T20:16:31.131Z,8.00
2018-02-04T20:17:37.895Z,9.10
2018-02-04T20:18:44.578Z,9.20
2018-02-04T20:19:51.780Z,9.00
2018-02-04T20:20:58.435Z,9.50
2018-02-04T20:22:05.620Z,10.10
2018-02-04T20:23:12.366Z,12.30
2018-02-04T20:24:19.515Z,8.10
2018-02-04T20:25:26.699Z,11.30
2018-02-04T20:26:33.553Z,9.70
2018-02-04T20:27:40.443Z,8.70
2018-02-04T20:28:47.103Z,8.50
2018-02-04T20:29:53.791Z,9.30
2018-02-04T20:31:00.504Z,10.30
2018-02-04T20:32:07.261Z,9.10
2018-02-04T20:33:14.160Z,9.10
2018-02-04T20:34:21.483Z,9.90
2018-02-04T20:35:27.947Z,10.60
2018-02-04T20:36:34.615Z,8.20
2018-02-04T20:37:41.302Z,11.50
2018-02-04T20:38:48.003Z,9.90
2018-02-04T20:39:54.807Z,12.10
2018-02-04T20:41:01.500Z,9.70
2018-02-04T20:42:08.283Z,9.20
2018-02-04T20:43:15.452Z,11.00
2018-02-04T20:44:22.131Z,8.80
2018-02-04T20:45:28.824Z,9.30
2018-02-04T20:46:35.519Z,9.70
2018-02-04T20:47:42.253Z,10.70
2018-02-04T20:48:48.954Z,12.00
2018-02-04T20:49:55.743Z,11.40
2018-02-04T20:51:02.684Z,10.60
2018-02-04T20:52:09.597Z,9.20
2018-02-04T20:53:16.810Z,9.40
2018-02-04T20:54:23.335Z,11.50
2018-02-04T20:55:30.063Z,9.90
2018-02-04T20:56:36.872Z,8.60
2018-02-04T20:57:43.891Z,10.00
2018-02-04T20:58:50.683Z,9.80
2018-02-04T20:59:57.308Z,10.60
2018-02-04T21:01:04.149Z,9.40
2018-02-04T21:02:11.151Z,10.30
2018-02-04T21:03:17.994Z,8.80
2018-02-04T21:04:24.762Z,10.30
2018-02-04T21:05:31.520Z,10.30
2018-02-04T21:06:38.552Z,10.70
2018-02-04T21:07:45.307Z,9.20
2018-02-04T21:08:52.147Z,11.40
2018-02-04T21:09:58.848Z,11.90
2018-02-04T21:11:05.551Z,9.60
2018-02-04T21:12:12.321Z,10.90
2018-02-04T21:13:19.075Z,9.10
2018-02-04T21:14:25.902Z,9.10
2018-02-04T21:15:32.593Z,9.70
2018-02-04T21:16:39.357Z,11.00
2018-02-04T21:17:46.123Z,11.30
2018-02-04T21:18:52.852Z,9.50
2018-02-04T21:19:59.663Z,11.70
2018-02-04T21:21:06.648Z,9.90
2018-02-04T21:22:13.499Z,10.70
2018-02-04T21:23:20.292Z,10.00
2018-02-04T21:24:27.055Z,11.00
2018-02-04T21:25:33.771Z,10.00
2018-02-04T21:26:40.636Z,10.30
2018-02-04T21:27:47.403Z,11.00
2018-02-04T21:28:54.200Z,10.00
2018-02-04T21:30:00.943Z,12.10
2018-02-04T21:31:07.775Z,11.10
2018-02-04T21:32:14.532Z,11.40
2018-02-04T21:33:21.306Z,12.30
2018-02-04T21:34:28.023Z,10.70
2018-02-04T21:35:34.867Z,10.10
2018-02-04T21:36:41.563Z,10.50
2018-02-04T21:37:48.311Z,11.10
2018-02-04T21:38:55.116Z,11.80
2018-02-04T21:40:01.803Z,11.20
2018-02-04T21:41:08.659Z,9.50
2018-02-04T21:42:15.411Z,9.30
2018-02-04T21:43:22.163Z,10.70
2018-02-04T21:44:28.916Z,10.50
2018-02-04T21:45:35.763Z,10.80
2018-02-04T21:46:42.474Z,10.50
2018-02-04T21:47:49.215Z,12.10
2018-02-04T21:48:55.984Z,10.90
2018-02-04T21:50:02.719Z,12.00
2018-02-04T21:51:09.514Z,11.60
2018-02-04T21:52:16.211Z,11.80
2018-02-04T21:53:22.975Z,10.60
2018-02-04T21:54:29.711Z,11.20
2018-02-04T21:55:36.455Z,12.80
2018-02-04T21:56:43.298Z,12.00
2018-02-04T21:57:50.024Z,13.20
2018-02-04T21:58:56.874Z,10.80
2018-02-04T22:00:03.734Z,11.40
2018-02-04T22:01:10.462Z,11.60
2018-02-04T22:02:17.196Z,11.60
2018-02-04T22:03:23.887Z,11.10
2018-02-04T22:04:31.087Z,10.70
2018-02-04T22:05:37.987Z,10.70
2018-02-04T22:06:44.835Z,10.10
2018-02-04T22:07:51.534Z,11.20
2018-02-04T22:08:58.275Z,10.90
2018-02-04T22:10:04.958Z,12.00
2018-02-04T22:11:11.798Z,11.10
2018-02-04T22:12:18.569Z,11.80
2018-02-04T22:13:25.265Z,12.10
2018-02-04T22:14:32.006Z,11.70
2018-02-04T22:15:38.675Z,13.30
2018-02-04T22:16:45.387Z,11.30
2018-02-04T22:17:52.081Z,10.40
2018-02-04T22:18:58.874Z,11.80
2018-02-04T22:20:05.579Z,10.70
2018-02-04T22:21:12.258Z,12.20
2018-02-04T22:22:18.983Z,11.70
2018-02-04T22:23:25.672Z,12.80
2018-02-04T22:24:32.550Z,10.00
2018-02-04T22:25:39.275Z,10.50
2018-02-04T22:26:45.976Z,10.40
2018-02-04T22:27:53.151Z,12.30
2018-02-04T22:28:59.872Z,11.30
2018-02-04T22:30:06.582Z,12.00
2018-02-04T22:31:13.312Z,11.00
2018-02-04T22:32:19.984Z,12.60
2018-02-04T22:33:26.699Z,11.90
2018-02-04T22:34:33.479Z,13.30
2018-02-04T22:35:40.171Z,11.80
2018-02-04T22:36:46.866Z,11.70
2018-02-04T22:37:53.552Z,10.10
2018-02-04T22:39:00.289Z,13.40
2018-02-04T22:40:07.363Z,10.80
2018-02-04T22:41:14.043Z,11.90
2018-02-04T22:42:20.867Z,12.00
2018-02-04T22:43:27.660Z,14.10
2018-02-04T22:44:34.451Z,11.70
2018-02-04T22:45:41.184Z,11.20
2018-02-04T22:46:47.897Z,10.70
2018-02-04T22:47:54.611Z,11.10
2018-02-04T22:49:01.304Z,11.10
2018-02-04T22:50:08.099Z,11.10
2018-02-04T22:51:16.239Z,12.70
2018-02-04T22:52:21.495Z,11.10
2018-02-04T22:53:28.341Z,12.30
2018-02-04T22:54:35.039Z,11.00
2018-02-04T22:55:41.931Z,10.50
2018-02-04T22:56:48.635Z,11.80
2018-02-04T22:57:55.396Z,11.40
2018-02-04T22:59:02.131Z,12.90
2018-02-04T23:00:08.841Z,11.30
2018-02-04T23:01:15.655Z,12.20
2018-02-04T23:02:22.346Z,11.40
2018-02-04T23:03:29.052Z,12.30
2018-02-04T23:04:35.793Z,14.80
2018-02-04T23:05:42.498Z,13.20
2018-02-04T23:06:49.611Z,13.30
2018-02-04T23:07:56.375Z,13.60
2018-02-04T23:09:03.550Z,12.80
2018-02-04T23:10:10.363Z,10.90
2018-02-04T23:11:17.062Z,12.00
2018-02-04T23:12:23.755Z,11.50
2018-02-04T23:13:30.458Z,12.00
2018-02-04T23:14:37.502Z,11.00
2018-02-04T23:15:44.179Z,12.20
2018-02-04T23:16:50.890Z,13.30
2018-02-04T23:17:57.574Z,10.60
2018-02-04T23:19:04.522Z,11.90
2018-02-04T23:20:11.260Z,14.50
2018-02-04T23:21:18.136Z,11.50
2018-02-04T23:22:24.971Z,12.50
2018-02-04T23:23:31.726Z,12.70
2018-02-04T23:24:38.429Z,10.20
2018-02-04T23:25:45.183Z,13.80
2018-02-04T23:26:51.906Z,11.90
2018-02-04T23:27:58.588Z,11.10
2018-02-04T23:29:05.576Z,11.60
2018-02-04T23:30:12.276Z,12.20
2018-02-04T23:31:18.978Z,9.70
2018-02-04T23:32:25.703Z,10.60
2018-02-04T23:33:32.484Z,14.70
2018-02-04T23:34:39.296Z,12.90
2018-02-04T23:35:45.984Z,12.90
2018-02-04T23:36:52.691Z,12.80
2018-02-04T23:37:59.396Z,12.10
2018-02-04T23:39:06.103Z,12.60
2018-02-04T23:40:12.819Z,11.80
2018-02-04T23:41:19.491Z,11.30
2018-02-04T23:42:26.203Z,11.80
2018-02-04T23:43:33.062Z,11.30
2018-02-04T23:44:39.752Z,11.60
2018-02-04T23:45:46.437Z,11.80
2018-02-04T23:46:53.142Z,12.30
2018-02-04T23:47:59.832Z,11.60
2018-02-04T23:49:06.519Z,11.10
2018-02-04T23:50:13.263Z,14.40
2018-02-04T23:51:19.956Z,13.00
2018-02-04T23:52:26.736Z,12.10
2018-02-04T23:53:33.483Z,11.50
2018-02-04T23:54:40.153Z,11.50
2018-02-04T23:55:46.824Z,12.30
2018-02-04T23:56:53.524Z,12.40
2018-02-04T23:58:00.239Z,9.70
2018-02-04T23:59:06.920Z,11.60
